Time;durP1;ratioP1;P1;durP2;ratioP2;P2;SDS_P1;SDS_P2;PMS_P1;PMS_P2;Temp;Humidity;BMP_temperature;BMP_pressure;BME280_temperature;BME280_humidity;BME280_pressure;Samples;Min_cycle;Max_cycle;Signal;HPM_P1;HPM_P2
2023/11/18 00:00:19;;;;;;;6.82;1.38;;;;;;;8.27;100.00;100593.31;5032692;28;20025;-86
2023/11/18 00:02:44;;;;;;;9.55;1.52;;;;;;;8.30;100.00;100588.00;5033522;28;20048;-86
2023/11/18 00:05:10;;;;;;;3.25;0.93;;;;;;;8.27;100.00;100588.16;5033130;28;20472;-86
2023/11/18 00:07:36;;;;;;;3.60;1.05;;;;;;;8.22;100.00;100579.78;5032993;28;20159;-86
2023/11/18 00:10:03;;;;;;;4.78;0.88;;;;;;;8.33;100.00;100587.88;5033171;28;20112;-86
2023/11/18 00:12:28;;;;;;;2.20;1.02;;;;;;;8.41;100.00;100570.38;5033323;28;20040;-86
2023/11/18 00:14:54;;;;;;;5.68;1.35;;;;;;;8.37;100.00;100573.97;5033052;28;20048;-86
2023/11/18 00:17:20;;;;;;;2.75;1.05;;;;;;;8.42;100.00;100555.78;5032545;28;20084;-86
2023/11/18 00:19:46;;;;;;;16.85;3.60;;;;;;;8.54;100.00;100556.03;5033446;28;20482;-86
2023/11/18 00:22:11;;;;;;;3.42;1.02;;;;;;;8.46;100.00;100549.56;5032862;28;20029;-87
2023/11/18 00:24:37;;;;;;;4.53;0.90;;;;;;;8.55;100.00;100538.88;5032661;28;20026;-86
2023/11/18 00:27:06;;;;;;;2.47;0.88;;;;;;;8.54;100.00;100534.63;5032709;28;20032;-86
2023/11/18 00:29:35;;;;;;;8.82;1.15;;;;;;;8.53;100.00;100528.66;5032194;28;20021;-87
2023/11/18 00:32:01;;;;;;;10.35;4.07;;;;;;;8.46;100.00;100527.28;5032684;28;20026;-87
2023/11/18 00:34:28;;;;;;;5.95;1.10;;;;;;;8.55;100.00;100524.25;5032658;28;20060;-86
2023/11/18 00:36:53;;;;;;;3.72;1.20;;;;;;;8.46;100.00;100511.84;5032677;28;20064;-86
2023/11/18 00:39:20;;;;;;;1.63;1.00;;;;;;;8.57;100.00;100509.59;5032767;28;20056;-86
2023/11/18 00:41:45;;;;;;;4.05;1.20;;;;;;;8.56;100.00;100510.50;5032708;28;20033;-86
2023/11/18 00:44:13;;;;;;;7.30;1.20;;;;;;;8.58;100.00;100489.81;5032300;28;20104;-86
2023/11/18 00:46:38;;;;;;;3.03;1.05;;;;;;;8.64;100.00;100483.56;5032313;28;20025;-86
2023/11/18 00:49:04;;;;;;;5.60;1.33;;;;;;;8.68;100.00;100490.22;5032389;28;20036;-87
2023/11/18 00:51:30;;;;;;;2.42;1.20;;;;;;;8.69;100.00;100476.47;5032386;28;20375;-86
2023/11/18 00:53:55;;;;;;;6.38;1.25;;;;;;;8.74;100.00;100469.34;5032346;28;20044;-86
2023/11/18 00:56:21;;;;;;;2.75;1.10;;;;;;;8.71;100.00;100465.19;5032392;28;20033;-86
2023/11/18 00:58:50;;;;;;;3.50;1.10;;;;;;;8.73;100.00;100447.94;5032263;28;20017;-86
2023/11/18 01:01:18;;;;;;;3.90;1.77;;;;;;;8.77;100.00;100448.59;5031705;28;20087;-86
2023/11/18 01:03:44;;;;;;;2.90;1.40;;;;;;;8.77;100.00;100433.16;5031992;28;20108;-87
2023/11/18 01:06:10;;;;;;;3.70;1.00;;;;;;;8.79;100.00;100436.50;5031953;28;20028;-86
2023/11/18 01:08:35;;;;;;;2.90;1.15;;;;;;;8.80;100.00;100438.16;5032250;28;20022;-86
2023/11/18 01:11:00;;;;;;;2.92;0.90;;;;;;;8.84;100.00;100442.25;5032315;28;20032;-86
2023/11/18 01:13:26;;;;;;;4.10;1.10;;;;;;;8.87;100.00;100424.06;5031966;28;20108;-86
2023/11/18 01:15:52;;;;;;;2.05;0.80;;;;;;;8.95;100.00;100419.38;5031390;28;20491;-86
2023/11/18 01:18:17;;;;;;;1.65;1.05;;;;;;;9.02;100.00;100409.56;5032335;28;20472;-86
2023/11/18 01:20:43;;;;;;;3.75;0.68;;;;;;;9.02;100.00;100411.31;5032034;28;20045;-86
2023/11/18 01:23:09;;;;;;;1.77;0.93;;;;;;;9.03;100.00;100403.53;5031749;28;20060;-86
2023/11/18 01:25:34;;;;;;;1.73;0.95;;;;;;;9.06;100.00;100405.13;5031738;28;20034;-86
2023/11/18 01:28:00;;;;;;;2.08;0.90;;;;;;;9.06;100.00;100397.41;5031872;28;20025;-86
2023/11/18 01:30:26;;;;;;;2.78;0.77;;;;;;;9.08;100.00;100395.56;5031319;28;20030;-86
2023/11/18 01:32:52;;;;;;;6.10;0.95;;;;;;;9.11;100.00;100385.09;5031818;28;20048;-86
2023/11/18 01:35:17;;;;;;;4.05;0.85;;;;;;;9.18;100.00;100381.31;5031960;28;20475;-87
2023/11/18 01:37:43;;;;;;;2.03;1.00;;;;;;;9.19;100.00;100377.81;5031701;28;20061;-86
2023/11/18 01:40:12;;;;;;;1.38;0.50;;;;;;;9.18;100.00;100378.72;5031682;28;20116;-86
2023/11/18 01:42:38;;;;;;;4.18;0.57;;;;;;;9.15;100.00;100386.63;5031684;28;20076;-86
2023/11/18 01:45:04;;;;;;;3.08;0.82;;;;;;;9.21;100.00;100384.53;5031142;28;20033;-86
2023/11/18 01:47:32;;;;;;;2.45;0.50;;;;;;;9.20;100.00;100358.88;5031767;28;20029;-86
2023/11/18 01:49:59;;;;;;;3.13;0.60;;;;;;;9.28;100.00;100368.78;5031677;28;20399;-86
2023/11/18 01:52:27;;;;;;;5.78;0.52;;;;;;;9.29;100.00;100373.84;5030245;28;20029;-86
2023/11/18 01:54:54;;;;;;;0.80;0.40;;;;;;;9.31;100.00;100372.00;5031347;28;20108;-86
2023/11/18 01:57:20;;;;;;;2.03;0.45;;;;;;;9.34;100.00;100365.84;5031595;28;20022;-86
2023/11/18 01:59:46;;;;;;;5.95;0.32;;;;;;;9.33;100.00;100367.59;5030879;28;20084;-86
2023/11/18 02:02:13;;;;;;;4.68;1.27;;;;;;;9.30;100.00;100359.22;5031238;28;20071;-86
2023/11/18 02:04:38;;;;;;;2.65;0.35;;;;;;;9.35;100.00;100360.63;5031439;28;20029;-86
2023/11/18 02:07:08;;;;;;;1.45;0.20;;;;;;;9.39;100.00;100344.09;5031629;28;20028;-86
2023/11/18 02:09:35;;;;;;;0.90;0.15;;;;;;;9.40;100.00;100350.91;5031575;28;20021;-86
2023/11/18 02:12:09;;;;;;;2.38;0.20;;;;;;;9.42;100.00;100343.09;5031399;28;20125;-86
2023/11/18 02:14:39;;;;;;;0.60;0.25;;;;;;;9.42;100.00;100343.94;5030771;28;20091;-86
2023/11/18 02:17:09;;;;;;;0.63;0.30;;;;;;;9.47;100.00;100327.41;5031487;28;20060;-86
2023/11/18 02:19:35;;;;;;;0.80;0.32;;;;;;;9.47;100.00;100311.94;5031376;28;20490;-86
2023/11/18 02:22:01;;;;;;;2.80;0.15;;;;;;;9.49;100.00;100317.84;5031458;28;20026;-86
2023/11/18 02:24:27;;;;;;;0.30;0.20;;;;;;;9.49;100.00;100312.69;5031284;28;20636;-86
2023/11/18 02:26:53;;;;;;;6.38;0.35;;;;;;;9.47;100.00;100293.91;5031289;28;20431;-86
2023/11/18 02:29:19;;;;;;;1.45;0.15;;;;;;;9.52;100.00;100297.06;5030630;28;20376;-86
2023/11/18 02:31:47;;;;;;;1.55;0.43;;;;;;;9.52;100.00;100302.22;5031211;28;20018;-86
2023/11/18 02:34:20;;;;;;;1.40;0.10;;;;;;;9.52;100.00;100297.88;5031057;28;20104;-87
2023/11/18 02:36:48;;;;;;;2.35;0.30;;;;;;;9.53;100.00;100286.66;5031199;28;20492;-86
2023/11/18 02:39:22;;;;;;;1.90;0.20;;;;;;;9.58;100.00;100283.81;5031308;28;20024;-85
2023/11/18 02:41:52;;;;;;;0.68;0.10;;;;;;;9.55;100.00;100260.81;5031208;28;20646;-85
2023/11/18 02:44:18;;;;;;;1.40;0.10;;;;;;;9.56;100.00;100270.19;5030351;28;20037;-85
2023/11/18 02:46:44;;;;;;;0.73;0.03;;;;;;;9.59;100.00;100257.16;5031008;28;20049;-85
2023/11/18 02:49:10;;;;;;;3.20;0.20;;;;;;;9.64;100.00;100250.00;5031097;28;20411;-84
2023/11/18 02:51:39;;;;;;;0.28;0.08;;;;;;;9.67;100.00;100249.00;5032565;28;20026;-85
2023/11/18 02:54:10;;;;;;;3.20;0.20;;;;;;;9.71;100.00;100250.50;5034538;28;20038;-84
2023/11/18 02:56:37;;;;;;;0.52;0.10;;;;;;;9.67;100.00;100249.00;5034587;28;20383;-85
2023/11/18 02:59:05;;;;;;;0.30;0.03;;;;;;;9.68;100.00;100236.03;5034195;28;20036;-85
2023/11/18 03:01:38;;;;;;;0.38;0.00;;;;;;;9.72;100.00;100222.03;5034615;28;20025;-84
2023/11/18 03:04:05;;;;;;;1.45;0.10;;;;;;;9.70;100.00;100218.72;5034348;28;20486;-84
2023/11/18 03:06:32;;;;;;;1.45;0.10;;;;;;;9.74;100.00;100224.53;5034971;28;20065;-84
2023/11/18 03:08:57;;;;;;;1.00;0.10;;;;;;;9.76;100.00;100231.25;5034362;28;20025;-84
2023/11/18 03:11:22;;;;;;;0.03;0.03;;;;;;;9.76;100.00;100228.69;5034367;28;20038;-84
2023/11/18 03:13:48;;;;;;;0.47;0.10;;;;;;;9.76;100.00;100208.06;5034101;28;20021;-84
2023/11/18 03:16:13;;;;;;;0.25;0.10;;;;;;;9.80;100.00;100209.56;5033818;28;20060;-84
2023/11/18 03:18:39;;;;;;;0.17;0.00;;;;;;;9.82;100.00;100194.81;5034299;28;20029;-84
2023/11/18 03:21:12;;;;;;;0.00;0.00;;;;;;;9.86;100.00;100193.72;5034160;28;20033;-84
2023/11/18 03:23:41;;;;;;;1.17;0.05;;;;;;;9.86;100.00;100185.97;5034013;28;20117;-84
2023/11/18 03:26:12;;;;;;;0.55;0.10;;;;;;;9.83;100.00;100168.13;5034271;28;20061;-84
2023/11/18 03:28:38;;;;;;;2.10;0.17;;;;;;;9.83;100.00;100160.41;5034036;28;20021;-84
2023/11/18 03:31:04;;;;;;;2.20;0.10;;;;;;;9.86;100.00;100141.34;5033254;28;20036;-84
2023/11/18 03:33:30;;;;;;;0.50;0.00;;;;;;;9.88;100.00;100125.78;5033692;28;20495;-84
2023/11/18 03:35:56;;;;;;;0.68;0.10;;;;;;;9.89;100.00;100112.78;5033899;28;20092;-84
2023/11/18 03:38:22;;;;;;;3.53;0.30;;;;;;;9.90;100.00;100111.03;5033886;28;20013;-84
2023/11/18 03:40:47;;;;;;;0.20;0.10;;;;;;;9.90;100.00;100105.88;5033891;28;20076;-84
2023/11/18 03:43:13;;;;;;;1.30;0.17;;;;;;;9.90;100.00;100091.28;5033707;28;20029;-84
2023/11/18 03:45:42;;;;;;;0.40;0.10;;;;;;;9.94;100.00;100112.53;5033235;28;20029;-84
2023/11/18 03:48:07;;;;;;;0.82;0.10;;;;;;;9.97;100.00;100102.03;5033726;28;20026;-84
2023/11/18 03:50:33;;;;;;;0.63;0.10;;;;;;;9.98;100.00;100119.16;5033549;28;20438;-84
2023/11/18 03:52:59;;;;;;;0.90;0.10;;;;;;;10.03;100.00;100115.38;5033365;28;20033;-84
2023/11/18 03:55:27;;;;;;;1.35;0.15;;;;;;;10.04;100.00;100113.63;5033642;28;20033;-84
2023/11/18 03:57:53;;;;;;;1.38;0.10;;;;;;;10.02;100.00;100103.41;5033534;28;20029;-84
2023/11/18 04:00:19;;;;;;;0.10;0.10;;;;;;;10.04;100.00;100093.81;5032829;28;20028;-84
2023/11/18 04:02:46;;;;;;;1.92;0.10;;;;;;;10.09;100.00;100085.81;5032253;28;20030;-84
2023/11/18 04:05:12;;;;;;;1.70;0.10;;;;;;;10.16;100.00;100075.94;5033150;28;20034;-84
2023/11/18 04:07:37;;;;;;;1.35;0.20;;;;;;;10.18;100.00;100072.34;5033565;28;20032;-84
2023/11/18 04:10:06;;;;;;;1.40;0.25;;;;;;;10.17;100.00;100073.28;5033288;28;20025;-84
2023/11/18 04:12:32;;;;;;;3.10;0.45;;;;;;;10.18;100.00;100082.66;5033187;28;20483;-84
2023/11/18 04:14:57;;;;;;;0.10;0.10;;;;;;;10.22;100.00;100071.25;5032551;28;20129;-84
2023/11/18 04:17:22;;;;;;;0.20;0.20;;;;;;;10.24;100.00;100078.88;5031880;28;20034;-84
2023/11/18 04:19:48;;;;;;;3.10;0.20;;;;;;;10.24;100.00;100064.25;5033080;28;20045;-84
2023/11/18 04:22:13;;;;;;;1.98;0.30;;;;;;;10.30;100.00;100049.34;5032967;28;20092;-84
2023/11/18 04:24:38;;;;;;;2.47;0.20;;;;;;;10.31;100.00;100074.19;5032979;28;20025;-84
2023/11/18 04:27:04;;;;;;;1.75;0.20;;;;;;;10.34;100.00;100064.53;5033027;28;20030;-84
2023/11/18 04:29:30;;;;;;;2.10;0.10;;;;;;;10.33;100.00;100059.47;5032224;28;20498;-85
2023/11/18 04:31:55;;;;;;;0.22;0.10;;;;;;;10.33;100.00;100031.09;5032807;28;20014;-84
2023/11/18 04:34:20;;;;;;;4.60;0.30;;;;;;;10.33;100.00;100025.94;5032468;28;20053;-84
2023/11/18 04:36:45;;;;;;;1.42;0.10;;;;;;;10.36;100.00;100018.00;5032892;28;20039;-84
2023/11/18 04:39:11;;;;;;;1.00;0.20;;;;;;;10.33;100.00;100013.03;5032810;28;20025;-85
2023/11/18 04:41:37;;;;;;;1.75;0.20;;;;;;;10.38;100.00;100016.97;5032979;28;20108;-84
2023/11/18 04:44:03;;;;;;;0.68;0.40;;;;;;;10.41;100.00;100018.53;5030628;28;20116;-84
2023/11/18 04:46:28;;;;;;;1.85;0.22;;;;;;;10.44;100.00;100005.44;5033081;28;20538;-84
2023/11/18 04:48:54;;;;;;;2.67;0.52;;;;;;;10.52;100.00;100007.53;5032792;28;20095;-84
2023/11/18 04:51:21;;;;;;;3.03;0.40;;;;;;;10.48;100.00;99999.16;5032573;28;20069;-84
2023/11/18 04:53:46;;;;;;;0.73;0.30;;;;;;;10.51;100.00;99983.50;5032279;28;20032;-84
2023/11/18 04:56:13;;;;;;;1.60;0.22;;;;;;;10.54;100.00;99983.28;5032679;28;20026;-84
2023/11/18 04:58:39;;;;;;;1.08;0.50;;;;;;;10.56;100.00;99978.84;5031971;28;20048;-84
2023/11/18 05:01:04;;;;;;;1.55;0.63;;;;;;;10.60;100.00;99969.16;5031172;28;20400;-84
2023/11/18 05:03:30;;;;;;;4.13;0.50;;;;;;;10.66;100.00;99963.59;5031873;28;20021;-84
2023/11/18 05:05:55;;;;;;;2.35;0.55;;;;;;;10.73;100.00;99951.09;5032185;28;20435;-84
2023/11/18 05:08:21;;;;;;;4.25;0.88;;;;;;;10.79;100.00;99955.88;5032343;28;20387;-84
2023/11/18 05:10:48;;;;;;;1.45;0.50;;;;;;;10.85;100.00;99937.38;5032314;28;20026;-84
2023/11/18 05:13:16;;;;;;;1.42;0.82;;;;;;;10.86;100.00;99945.03;5031420;28;20054;-84
2023/11/18 05:15:45;;;;;;;4.25;1.10;;;;;;;10.94;100.00;99939.34;5031877;28;20079;-85
2023/11/18 05:18:13;;;;;;;6.22;1.25;;;;;;;11.01;100.00;99938.00;5032101;28;20391;-84
2023/11/18 05:20:39;;;;;;;3.90;1.27;;;;;;;11.16;100.00;99940.50;5032323;28;20449;-84
2023/11/18 05:23:05;;;;;;;6.55;1.20;;;;;;;11.26;100.00;99934.59;5031827;28;20049;-84
2023/11/18 05:25:33;;;;;;;5.90;1.30;;;;;;;11.31;100.00;99931.69;5031833;28;20038;-84
2023/11/18 05:27:59;;;;;;;3.58;1.40;;;;;;;11.34;100.00;99944.44;5031332;28;20029;-84
2023/11/18 05:30:25;;;;;;;4.25;1.17;;;;;;;11.41;100.00;99943.06;5031776;28;20021;-84
2023/11/18 05:32:51;;;;;;;1.70;1.00;;;;;;;11.46;100.00;99947.91;5031575;28;20025;-84
2023/11/18 05:35:16;;;;;;;4.40;1.45;;;;;;;11.50;100.00;99937.25;5031439;28;20404;-84
2023/11/18 05:37:42;;;;;;;4.60;1.67;;;;;;;11.56;100.00;99939.41;5031836;28;20036;-84
2023/11/18 05:40:07;;;;;;;5.82;1.55;;;;;;;11.59;100.00;99934.97;5031835;28;20032;-84
2023/11/18 05:42:37;;;;;;;4.35;1.58;;;;;;;11.67;100.00;99935.25;5031844;28;20033;-84
2023/11/18 05:45:07;;;;;;;14.82;1.67;;;;;;;11.70;100.00;99928.09;5030808;28;20030;-84
2023/11/18 05:47:34;;;;;;;3.83;1.60;;;;;;;11.81;100.00;99927.34;5031840;28;20033;-85
2023/11/18 05:49:59;;;;;;;16.33;2.65;;;;;;;11.82;100.00;99929.00;5031586;28;20030;-84
2023/11/18 05:52:25;;;;;;;5.72;1.67;;;;;;;11.80;100.00;99928.28;5031703;28;20063;-85
2023/11/18 05:54:50;;;;;;;20.65;2.30;;;;;;;11.87;100.00;99926.94;5031495;28;20037;-86
2023/11/18 05:57:18;;;;;;;4.18;2.03;;;;;;;11.90;100.00;99906.06;5031634;28;20155;-85
2023/11/18 05:59:47;;;;;;;5.75;2.25;;;;;;;11.92;100.00;99906.75;5030884;28;20037;-85
2023/11/18 06:02:18;;;;;;;8.95;2.22;;;;;;;12.02;100.00;99929.38;5031530;28;20032;-85
2023/11/18 06:04:47;;;;;;;9.10;2.45;;;;;;;12.03;100.00;99941.38;5031484;28;20025;-85
2023/11/18 06:07:15;;;;;;;13.50;1.80;;;;;;;12.02;100.00;99937.13;5030270;28;20423;-85
2023/11/18 06:09:45;;;;;;;12.98;2.47;;;;;;;12.03;100.00;99923.28;5031399;28;20052;-85
2023/11/18 06:12:11;;;;;;;9.63;2.25;;;;;;;12.03;100.00;99928.44;5031425;28;20037;-85
2023/11/18 06:14:41;;;;;;;3.88;1.65;;;;;;;12.09;100.00;99928.00;5030673;28;20369;-85
2023/11/18 06:17:08;;;;;;;9.50;2.47;;;;;;;12.10;100.00;99934.84;5031673;28;20103;-85
2023/11/18 06:19:34;;;;;;;9.05;2.15;;;;;;;12.13;100.00;99919.09;5031381;28;20026;-85
2023/11/18 06:21:59;;;;;;;4.68;1.70;;;;;;;12.15;100.00;99912.03;5031337;28;20029;-85
2023/11/18 06:24:24;;;;;;;6.25;1.67;;;;;;;12.22;100.00;99908.06;5031190;28;20064;-86
2023/11/18 06:26:50;;;;;;;13.77;2.33;;;;;;;12.19;100.00;99888.44;5033127;28;20219;-86
2023/11/18 06:29:15;;;;;;;3.88;1.20;;;;;;;12.18;100.00;99881.59;5034599;28;20109;-85
2023/11/18 06:31:42;;;;;;;5.65;1.13;;;;;;;12.26;100.00;99891.38;5035152;28;20063;-85
2023/11/18 06:34:08;;;;;;;3.38;0.93;;;;;;;12.26;100.00;99888.78;5034760;28;20488;-85
2023/11/18 06:36:33;;;;;;;4.72;0.77;;;;;;;12.28;100.00;99881.75;5034939;28;20031;-85
2023/11/18 06:38:58;;;;;;;1.77;0.45;;;;;;;12.33;100.00;99876.22;5034991;28;20028;-85
2023/11/18 06:41:25;;;;;;;1.85;0.50;;;;;;;12.36;100.00;99873.41;5034885;28;20022;-85
2023/11/18 06:43:51;;;;;;;1.50;0.40;;;;;;;12.36;100.00;99874.25;5033847;28;20041;-85
2023/11/18 06:46:31;;;;;;;1.50;0.50;;;;;;;12.39;100.00;99871.44;5034986;28;20017;-85
2023/11/18 06:48:57;;;;;;;3.55;1.17;;;;;;;12.45;100.00;99864.16;5033458;28;20037;-85
2023/11/18 06:51:24;;;;;;;5.45;0.85;;;;;;;12.51;100.00;99871.44;5034676;28;20021;-85
2023/11/18 06:53:55;;;;;;;2.35;0.70;;;;;;;12.45;100.00;99874.50;5034395;28;20033;-85
2023/11/18 06:56:20;;;;;;;2.42;0.60;;;;;;;12.51;100.00;99864.53;5034970;28;20403;-85
2023/11/18 06:58:45;;;;;;;10.00;0.75;;;;;;;12.56;100.00;99869.38;5033926;28;20036;-85
2023/11/18 07:01:17;;;;;;;6.00;0.80;;;;;;;12.52;100.00;99853.22;5034654;28;20056;-85
2023/11/18 07:03:43;;;;;;;2.55;1.02;;;;;;;12.56;100.00;99859.00;5034375;28;20480;-85
2023/11/18 07:06:09;;;;;;;3.83;1.23;;;;;;;12.66;100.00;99870.31;5034499;28;20040;-85
2023/11/18 07:08:35;;;;;;;5.03;1.30;;;;;;;12.69;100.00;99864.91;5034380;28;20120;-85
2023/11/18 07:11:01;;;;;;;1.52;0.98;;;;;;;12.79;100.00;99855.50;5034271;28;20032;-85
2023/11/18 07:13:28;;;;;;;4.72;0.77;;;;;;;12.71;100.00;99855.25;5033461;28;20022;-85
2023/11/18 07:15:57;;;;;;;2.88;0.90;;;;;;;12.69;100.00;99851.94;5034389;28;20025;-85
2023/11/18 07:18:25;;;;;;;6.05;1.70;;;;;;;12.73;100.00;99848.19;5034279;28;20087;-85
2023/11/18 07:20:52;;;;;;;1.48;0.82;;;;;;;12.70;100.00;99840.63;5034021;28;20018;-85
2023/11/18 07:23:18;;;;;;;6.75;1.40;;;;;;;12.72;100.00;99841.34;5034113;28;20025;-85
2023/11/18 07:25:44;;;;;;;4.03;0.70;;;;;;;12.75;100.00;99869.63;5034241;28;20026;-85
2023/11/18 07:28:11;;;;;;;2.80;0.90;;;;;;;12.79;100.00;99855.50;5033428;28;20037;-85
2023/11/18 07:30:37;;;;;;;12.68;1.13;;;;;;;12.79;100.00;99845.13;5033929;28;20025;-85
2023/11/18 07:33:03;;;;;;;8.20;2.20;;;;;;;12.83;100.00;99835.38;5032550;28;20506;-85
2023/11/18 07:35:29;;;;;;;5.93;1.13;;;;;;;12.80;100.00;99854.56;5033872;28;20036;-85
2023/11/18 07:37:55;;;;;;;5.55;1.20;;;;;;;12.84;100.00;99858.53;5033798;28;20022;-85
2023/11/18 07:40:27;;;;;;;2.30;0.90;;;;;;;12.87;100.00;99841.94;5033848;28;20388;-85
2023/11/18 07:42:56;;;;;;;6.75;2.40;;;;;;;12.91;100.00;99848.56;5031806;28;20144;-85
2023/11/18 07:45:23;;;;;;;9.68;1.40;;;;;;;12.91;100.00;99850.31;5033954;28;20030;-85
2023/11/18 07:47:50;;;;;;;5.10;1.15;;;;;;;12.96;100.00;99838.66;5033914;28;20259;-85
2023/11/18 07:50:17;;;;;;;9.98;1.25;;;;;;;12.97;100.00;99850.69;5033387;28;20099;-85
2023/11/18 07:52:42;;;;;;;5.53;1.75;;;;;;;12.91;100.00;99837.38;5033496;28;20395;-85
2023/11/18 07:55:11;;;;;;;10.48;1.00;;;;;;;13.04;100.00;99844.06;5033471;28;20029;-86
2023/11/18 07:57:36;;;;;;;2.65;1.02;;;;;;;13.10;100.00;99837.59;5032766;28;20155;-85
2023/11/18 08:00:08;;;;;;;4.18;1.30;;;;;;;13.08;100.00;99836.91;5033478;28;20510;-86
2023/11/18 08:02:35;;;;;;;7.90;1.35;;;;;;;13.11;100.00;99838.41;5033173;28;20022;-85
2023/11/18 08:05:02;;;;;;;7.43;1.05;;;;;;;13.10;100.00;99853.16;5033164;28;20029;-85
2023/11/18 08:07:28;;;;;;;6.57;1.40;;;;;;;13.00;100.00;99860.00;5033520;28;20527;-85
2023/11/18 08:09:53;;;;;;;5.93;1.40;;;;;;;13.10;100.00;99860.91;5033543;28;20032;-85
2023/11/18 08:12:20;;;;;;;3.80;1.20;;;;;;;13.11;100.00;99859.97;5032753;28;20064;-85
2023/11/18 08:14:47;;;;;;;2.38;1.13;;;;;;;13.18;100.00;99866.31;5032744;28;20080;-85
2023/11/18 08:17:13;;;;;;;2.60;0.95;;;;;;;13.21;100.00;99871.25;5032902;28;20025;-85
2023/11/18 08:19:38;;;;;;;6.85;0.82;;;;;;;13.24;100.00;99855.50;5033240;28;20116;-85
2023/11/18 08:22:04;;;;;;;4.60;0.80;;;;;;;13.19;100.00;99861.97;5033013;28;20540;-85
2023/11/18 08:24:29;;;;;;;3.30;0.70;;;;;;;13.19;100.00;99859.38;5032838;28;20048;-85
2023/11/18 08:26:55;;;;;;;5.85;1.48;;;;;;;13.25;100.00;99841.59;5032224;28;20025;-85
2023/11/18 08:29:21;;;;;;;3.85;0.80;;;;;;;13.23;100.00;99851.25;5032872;28;20103;-85
2023/11/18 08:31:46;;;;;;;2.83;1.00;;;;;;;13.17;100.00;99853.50;5032887;28;20056;-85
2023/11/18 08:34:12;;;;;;;4.40;1.38;;;;;;;13.16;100.00;99878.56;5032544;28;20468;-85
2023/11/18 08:36:37;;;;;;;6.32;1.02;;;;;;;13.30;100.00;99850.81;5032700;28;20391;-85
2023/11/18 08:39:04;;;;;;;3.65;0.90;;;;;;;13.30;100.00;99837.84;5032963;28;20032;-85
2023/11/18 08:41:31;;;;;;;5.95;0.93;;;;;;;13.31;100.00;99832.53;5032661;28;20116;-85
2023/11/18 08:43:57;;;;;;;1.40;0.90;;;;;;;13.30;100.00;99822.28;5031949;28;20376;-85
2023/11/18 08:46:22;;;;;;;3.75;0.70;;;;;;;13.35;100.00;99825.34;5032566;28;20031;-85
2023/11/18 08:48:48;;;;;;;4.38;1.10;;;;;;;13.38;100.00;99845.84;5032129;28;20045;-85
2023/11/18 08:51:15;;;;;;;5.68;1.33;;;;;;;13.38;100.00;99853.59;5032433;28;20025;-85
2023/11/18 08:53:41;;;;;;;4.57;0.75;;;;;;;13.27;100.00;99859.66;5032229;28;20033;-85
2023/11/18 08:56:15;;;;;;;3.00;0.77;;;;;;;13.34;100.00;99847.84;5032656;28;20111;-85
2023/11/18 08:58:44;;;;;;;3.78;0.75;;;;;;;13.37;100.00;99831.25;5031710;28;20060;-85
2023/11/18 09:01:14;;;;;;;1.70;0.50;;;;;;;13.33;100.00;99840.19;5032330;28;20034;-85
2023/11/18 09:03:48;;;;;;;5.60;0.80;;;;;;;13.33;100.00;99837.59;5032065;28;20033;-85
2023/11/18 09:06:17;;;;;;;5.45;0.68;;;;;;;13.42;100.00;99826.50;5032299;28;20490;-85
2023/11/18 09:08:43;;;;;;;4.20;0.40;;;;;;;13.46;100.00;99833.09;5032111;28;20384;-85
2023/11/18 09:11:14;;;;;;;3.75;0.52;;;;;;;13.50;100.00;99829.31;5032108;28;20424;-85
2023/11/18 09:13:42;;;;;;;4.20;0.30;;;;;;;13.53;100.00;99826.47;5031251;28;20105;-85
2023/11/18 09:16:09;;;;;;;2.50;0.50;;;;;;;13.55;100.00;99834.94;5032006;28;20443;-85
2023/11/18 09:18:35;;;;;;;4.03;0.50;;;;;;;13.52;100.00;99837.78;5031983;28;20018;-85
2023/11/18 09:21:03;;;;;;;3.63;0.60;;;;;;;13.55;100.00;99832.34;5032070;28;20025;-85
2023/11/18 09:23:31;;;;;;;2.65;0.73;;;;;;;13.62;100.00;99841.28;5031932;28;20061;-85
2023/11/18 09:25:57;;;;;;;3.30;0.28;;;;;;;13.68;100.00;99848.59;5031794;28;20025;-85
2023/11/18 09:28:30;;;;;;;0.52;0.20;;;;;;;13.74;100.00;99851.66;5031223;28;20030;-85
2023/11/18 09:30:57;;;;;;;2.88;0.50;;;;;;;13.73;100.00;99860.34;5032118;28;20029;-85
2023/11/18 09:33:28;;;;;;;1.88;0.52;;;;;;;13.75;100.00;99851.50;5031763;28;20518;-85
2023/11/18 09:36:00;;;;;;;1.77;0.28;;;;;;;13.81;100.00;99860.59;5032040;28;20079;-85
2023/11/18 09:38:30;;;;;;;0.65;0.10;;;;;;;13.72;100.00;99848.34;5031712;28;20030;-85
2023/11/18 09:41:02;;;;;;;1.08;0.10;;;;;;;13.76;100.00;99839.38;5030746;28;20064;-85
2023/11/18 09:43:32;;;;;;;0.77;0.17;;;;;;;13.73;100.00;99839.63;5031236;28;20109;-85
2023/11/18 09:46:04;;;;;;;2.03;0.40;;;;;;;13.78;100.00;99842.69;5030772;28;20053;-85
2023/11/18 09:48:29;;;;;;;1.77;0.40;;;;;;;13.78;100.00;99837.50;5031529;28;20034;-85
2023/11/18 09:50:59;;;;;;;0.20;0.10;;;;;;;13.84;100.00;99849.97;5031669;28;20116;-85
2023/11/18 09:53:31;;;;;;;0.40;0.10;;;;;;;13.83;100.00;99861.28;5031569;28;20167;-85
2023/11/18 09:56:03;;;;;;;1.23;0.10;;;;;;;13.75;100.00;99848.91;5031606;28;20099;-85
2023/11/18 09:58:41;;;;;;;0.50;0.10;;;;;;;13.76;100.00;99854.94;5031375;28;20033;-85
2023/11/18 10:01:06;;;;;;;0.03;0.00;;;;;;;13.87;100.00;99858.31;5032366;28;20028;-85
2023/11/18 10:03:35;;;;;;;0.25;0.05;;;;;;;13.90;100.00;99862.44;5035310;28;20104;-85
2023/11/18 10:06:04;;;;;;;1.10;0.10;;;;;;;13.89;100.00;99873.75;5035724;28;20030;-84
2023/11/18 10:08:31;;;;;;;0.77;0.10;;;;;;;13.90;100.00;99888.41;5035532;28;20061;-85
2023/11/18 10:11:04;;;;;;;0.00;0.00;;;;;;;13.90;100.00;99883.22;5035517;28;20021;-85
2023/11/18 10:13:34;;;;;;;0.55;0.20;;;;;;;13.89;100.00;99871.16;5035216;28;20033;-85
2023/11/18 10:16:00;;;;;;;2.63;0.25;;;;;;;13.87;100.00;99875.66;5035509;28;20032;-84
2023/11/18 10:18:28;;;;;;;1.15;0.20;;;;;;;13.80;100.00;99871.91;5034068;28;20029;-85
2023/11/18 10:20:53;;;;;;;0.43;0.20;;;;;;;13.90;100.00;99875.44;5035360;28;20025;-85
2023/11/18 10:23:22;;;;;;;1.35;0.30;;;;;;;13.77;100.00;99891.13;5033948;28;20075;-85
2023/11/18 10:25:49;;;;;;;0.65;0.17;;;;;;;13.86;100.00;99887.78;5035272;28;20524;-85
2023/11/18 10:28:27;;;;;;;1.50;0.20;;;;;;;13.80;100.00;99887.44;5034456;28;20025;-85
2023/11/18 10:30:57;;;;;;;5.00;0.75;;;;;;;13.83;100.00;99897.59;5035047;28;20026;-85
2023/11/18 10:33:30;;;;;;;3.30;0.35;;;;;;;13.85;100.00;99906.06;5034816;28;20104;-85
2023/11/18 10:35:56;;;;;;;1.60;0.70;;;;;;;13.83;100.00;99892.41;5035177;28;20053;-85
2023/11/18 10:38:25;;;;;;;2.15;0.20;;;;;;;13.89;100.00;99881.53;5034951;28;20025;-85
2023/11/18 10:40:57;;;;;;;1.65;0.22;;;;;;;13.89;100.00;99882.34;5034556;28;20040;-85
2023/11/18 10:43:28;;;;;;;2.92;0.77;;;;;;;13.83;100.00;99871.66;5034664;28;20044;-85
2023/11/18 10:46:15;;;;;;;1.95;0.25;;;;;;;13.82;100.00;99881.19;5034784;28;20172;-85
2023/11/18 10:48:50;;;;;;;5.75;0.30;;;;;;;13.88;100.00;99874.72;5034490;28;20121;-85
2023/11/18 10:51:20;;;;;;;2.78;0.30;;;;;;;13.91;100.00;99874.47;5034834;28;20380;-85
2023/11/18 10:54:17;;;;;;;5.40;0.52;;;;;;;14.02;100.00;99881.38;5034602;28;20068;-85
2023/11/18 10:56:46;;;;;;;2.15;0.35;;;;;;;14.06;100.00;99875.00;5033778;28;20022;-85
2023/11/18 10:59:16;;;;;;;7.90;0.65;;;;;;;14.03;100.00;99886.44;5034833;28;20112;-85
2023/11/18 11:01:42;;;;;;;6.57;0.82;;;;;;;14.07;100.00;99880.06;5035099;28;20155;-85
2023/11/18 11:04:11;;;;;;;7.57;0.68;;;;;;;14.16;100.00;99862.91;5034421;28;20029;-85
2023/11/18 11:06:42;;;;;;;4.80;1.27;;;;;;;14.28;100.00;99867.09;5034770;28;20377;-85
2023/11/18 11:09:16;;;;;;;3.53;1.15;;;;;;;14.30;100.00;99867.81;5034598;28;20136;-85
2023/11/18 11:12:06;;;;;;;4.53;0.77;;;;;;;14.33;100.00;99867.53;5033225;28;20022;-85
2023/11/18 11:14:40;;;;;;;4.25;0.65;;;;;;;14.33;100.00;99864.13;5034249;28;20037;-85
2023/11/18 11:17:19;;;;;;;2.72;0.85;;;;;;;14.58;100.00;99867.31;5034479;28;20103;-85
2023/11/18 11:19:55;;;;;;;3.67;0.70;;;;;;;14.87;100.00;99870.88;5034144;28;20143;-85
2023/11/18 11:22:24;;;;;;;3.70;0.75;;;;;;;15.03;100.00;99859.22;5034211;28;20021;-85
2023/11/18 11:25:22;;;;;;;7.15;0.90;;;;;;;15.25;100.00;99860.78;5033857;28;20033;-86